Etna, New Hampshire
Current Conditions -  °F | °C
As of 8:53 PM on Wednesday 22 Oct 2014 (Local Time) from KLEB Reporting Station
Overcast Overcast  
Wind Chill: 44°   Ceiling: 2400
Heat Index: 49°   Visibility: 10mi
Dew Point: 43°   Wind: 12mph
Humidity: 80%   Direction: 10°N
Pressure: 30.01"   Gusts: NA
Location:  43.69°N, 72.22°W
Report Text: KLEB 230053Z 01010KT 10SM OVC024 09/06 A3001 RMK AO2 RAE15 SLP163 P0001 T00940061
Loading
Personal Weather Stations






























Interactive Weather Map
Tropical Storm Tracking
New forecast layout! Learn more

10-Day Weather Forecast

Advertisements
Track Severe Weather on mobile